Detall de PIREP

Printer-friendly versionPDF version

[2013/10/15 08:27:00]
Flight IATA:CT3232
Pilot Number:042
Company ICAO:CAT
Aircraft Type:B744/E
PAX:200
Departing Airport: LEPA
Destination Airport: LEMD
Alternate Airport:LEMG
Online: VATSIM
Route:EPAMA UN733 PRADO
Flight Level:F300
No Slew and time accel
No pause
Crash detect
Detect pilot in Cockpit between each 30 and 45 minutes
08:27 Zero fuel Weight: 394194 Lbs, Fuel Weight: 101393 Lbs
08:27 VATSIM:LEPA 150800Z 24008KT 9999 FEW018 SCT020 23/19 Q1018 NOSIG
08:27 VATSIM:LEMD 150800Z 35001KT 9999 FEW070 13/12 Q1022 NOSIG
08:27 VOICE CATALONIAN
08:35 Parking Brakes off
08:46 Take-off
08:46 Take off Weight: 492978 Lbs
08:46 Wind: 000º @ 000 Knots Heading: 235º
08:46 POS N39º 33´ 21´´ E002º 43´ 44´´
08:46 Flaps:4 at 205 Knots
08:46 Flaps:3 at 218 Knots
08:46 Gear Up: 220 Knots
08:47 Flaps:2 at 214 Knots
08:48 Flaps:1 at 260 Knots
08:49 Flaps:0 at 255 Knots
08:55 TOC
08:55 Fuel Weight: 90863 Lb
09:01 Wind:270º@025 Knots Heading: 266º Ground Speed: 438 Knots Altitude 29996 ft
09:16 Wind:270º@025 Knots Heading: 297º Ground Speed: 441 Knots Altitude 30000 ft
09:18 TOD
09:18 Fuel Weight: 83672 Lb
09:31 Wind:270º@020 Knots Heading: 269º Ground Speed: 246 Knots Altitude 7345 ft
09:31 Flaps:1 at 209 Knots
09:32 Flaps:2 at 189 Knots
09:33 Flaps:3 at 172 Knots
09:37 Flaps:4 at 170 Knots
09:37 Gear Down: 169 Knots
09:37 Gear Up: 146 Knots
09:39 Flaps:5 at 132 Knots
09:39 Gear Down: 131 Knots
09:41 TouchDown:Rate -142 ft/min Speed: 128 Knots
09:41 VATSIM:LEMD 150930Z 00000KT 9999 SCT065 17/12 Q1022 NOSIG
09:41 Land
09:41 Wind:000º@000 Knots
09:41 Heading: 322º
09:41 Flight Duration: 00:55
09:41 Landing Weight: 472715 Lbs
09:41 POS N40º 28´ 25´´ W003º 33´ 54´´
09:46 Parking brakes on
09:46 Block to Block Duration: 01:11
09:46 Final Fuel: 77198 Lbls
09:46 Spent Fuel: 24195 Lbls
09:46 Flight Length: 311 NM
09:46 TOD Land Length: 95 NM

Exportar CSV

Powered by Drupal - Modified by Danger4k